createdAt,value
2017-09-04T00:01:37.981Z,7.37
2017-09-04T00:04:05.766Z,7.85
2017-09-04T00:06:33.443Z,4.68
2017-09-04T00:09:01.086Z,5.65
2017-09-04T00:11:28.716Z,8.85
2017-09-04T00:13:56.429Z,7.25
2017-09-04T00:16:24.066Z,6.78
2017-09-04T00:18:51.707Z,6.12
2017-09-04T00:21:19.366Z,6.25
2017-09-04T00:23:46.999Z,4.78
2017-09-04T00:26:14.633Z,5.50
2017-09-04T00:28:42.299Z,5.93
2017-09-04T00:31:09.936Z,5.93
2017-09-04T00:33:37.560Z,5.80
2017-09-04T00:36:05.270Z,7.15
2017-09-04T00:38:32.905Z,5.12
2017-09-04T00:41:00.525Z,7.10
2017-09-04T00:43:28.198Z,5.10
2017-09-04T00:45:55.828Z,6.47
2017-09-04T00:48:23.445Z,6.22
2017-09-04T00:50:51.100Z,6.90
2017-09-04T00:53:18.740Z,7.75
2017-09-04T00:55:46.356Z,6.93
2017-09-04T00:58:14.024Z,6.03
2017-09-04T01:00:41.681Z,4.87
2017-09-04T01:03:09.325Z,5.50
2017-09-04T01:05:36.990Z,5.82
2017-09-04T01:08:04.637Z,5.90
2017-09-04T01:10:32.270Z,5.72
2017-09-04T01:12:59.950Z,5.10
2017-09-04T01:15:27.586Z,5.80
2017-09-04T01:17:55.220Z,4.85
2017-09-04T01:20:22.884Z,4.90
2017-09-04T01:22:50.507Z,5.57
2017-09-04T01:25:18.126Z,6.72
2017-09-04T01:27:45.783Z,6.15
2017-09-04T01:30:13.428Z,7.30
2017-09-04T01:32:41.074Z,4.70
2017-09-04T01:35:08.755Z,10.68
2017-09-04T01:37:36.540Z,7.30
2017-09-04T01:40:04.194Z,4.90
2017-09-04T01:42:31.856Z,4.28
2017-09-04T01:44:59.476Z,5.18
2017-09-04T01:47:27.104Z,4.20
2017-09-04T01:49:54.762Z,5.03
2017-09-04T01:52:22.398Z,5.28
2017-09-04T01:54:50.019Z,4.62
2017-09-04T01:57:17.730Z,4.75
2017-09-04T01:59:45.336Z,6.00
2017-09-04T02:02:12.965Z,4.43
2017-09-04T02:04:40.614Z,5.25
2017-09-04T02:07:08.244Z,3.95
2017-09-04T02:09:35.921Z,5.47
2017-09-04T02:12:03.579Z,5.93
2017-09-04T02:14:31.216Z,5.22
2017-09-04T02:16:58.830Z,4.90
2017-09-04T02:19:26.533Z,5.75
2017-09-04T02:21:54.157Z,7.10
2017-09-04T02:24:21.789Z,6.87
2017-09-04T02:26:49.448Z,7.45
2017-09-04T02:29:17.083Z,6.87
2017-09-04T02:31:44.729Z,9.70
2017-09-04T02:34:12.383Z,7.25
2017-09-04T02:36:40.023Z,6.68
2017-09-04T02:39:07.662Z,6.62
2017-09-04T02:41:35.343Z,7.32
2017-09-04T02:44:03.009Z,7.40
2017-09-04T02:46:30.657Z,7.43
2017-09-04T02:48:58.312Z,7.57
2017-09-04T02:51:25.964Z,6.60
2017-09-04T02:53:53.593Z,7.10
2017-09-04T02:56:21.261Z,6.97
2017-09-04T02:58:48.909Z,6.53
2017-09-04T03:01:16.557Z,5.87
2017-09-04T03:03:44.218Z,7.95
2017-09-04T03:06:11.857Z,5.95
2017-09-04T03:08:39.505Z,6.28
2017-09-04T03:11:07.205Z,6.95
2017-09-04T03:13:34.823Z,6.05
2017-09-04T03:16:02.469Z,5.20
2017-09-04T03:18:30.134Z,4.55
2017-09-04T03:20:57.765Z,5.03
2017-09-04T03:23:25.409Z,5.15
2017-09-04T03:25:53.061Z,5.18
2017-09-04T03:28:20.683Z,5.60
2017-09-04T03:30:48.300Z,5.53
2017-09-04T03:33:15.973Z,5.05
2017-09-04T03:35:43.640Z,4.80
2017-09-04T03:38:11.275Z,5.22
2017-09-04T03:40:38.941Z,6.00
2017-09-04T03:43:06.603Z,5.45
2017-09-04T03:45:34.237Z,8.05
2017-09-04T03:48:01.905Z,5.87
2017-09-04T03:50:29.537Z,7.35
2017-09-04T03:52:57.189Z,8.23
2017-09-04T03:55:24.862Z,8.15
2017-09-04T03:57:52.502Z,9.25
2017-09-04T04:00:20.133Z,7.07
2017-09-04T04:02:47.788Z,8.38
2017-09-04T04:05:15.422Z,7.70
2017-09-04T04:07:43.064Z,8.65
2017-09-04T04:10:10.723Z,6.70
2017-09-04T04:12:38.368Z,6.62
2017-09-04T04:15:06.067Z,8.75
2017-09-04T04:17:33.734Z,9.25
2017-09-04T04:20:01.395Z,6.75
2017-09-04T04:22:29.041Z,7.12
2017-09-04T04:24:56.696Z,8.60
2017-09-04T04:27:24.332Z,7.03
2017-09-04T04:29:51.974Z,7.75
2017-09-04T04:32:19.645Z,7.45
2017-09-04T04:34:47.296Z,6.68
2017-09-04T04:37:14.923Z,7.82
2017-09-04T04:39:42.583Z,6.95
2017-09-04T04:42:10.224Z,6.65
2017-09-04T04:44:37.899Z,9.13
2017-09-04T04:47:05.611Z,8.10
2017-09-04T04:49:33.252Z,6.97
2017-09-04T04:52:00.898Z,10.07
2017-09-04T04:54:28.577Z,9.50
2017-09-04T04:56:56.286Z,8.18
2017-09-04T04:59:23.916Z,7.62
2017-09-04T05:01:51.610Z,7.93
2017-09-04T05:04:19.235Z,8.77
2017-09-04T05:06:46.885Z,8.07
2017-09-04T05:09:14.561Z,6.85
2017-09-04T05:11:42.199Z,7.50
2017-09-04T05:14:10.355Z,9.52
2017-09-04T05:16:38.017Z,8.30
2017-09-04T05:19:05.664Z,8.02
2017-09-04T05:21:33.337Z,6.07
2017-09-04T05:24:01.034Z,5.95
2017-09-04T05:26:28.665Z,8.45
2017-09-04T05:28:56.299Z,7.25
2017-09-04T05:31:23.970Z,6.75
2017-09-04T05:33:51.604Z,6.85
2017-09-04T05:36:19.237Z,8.95
2017-09-04T05:38:46.900Z,7.68
2017-09-04T05:41:14.541Z,6.72
2017-09-04T05:43:42.704Z,7.35
2017-09-04T05:46:10.364Z,6.50
2017-09-04T05:48:38.001Z,6.65
2017-09-04T05:51:05.657Z,7.37
2017-09-04T05:53:33.355Z,8.25
2017-09-04T05:56:00.989Z,7.05
2017-09-04T05:58:28.608Z,6.47
2017-09-04T06:00:56.283Z,5.90
2017-09-04T06:03:23.929Z,5.70
2017-09-04T06:05:51.555Z,6.05
2017-09-04T06:08:19.220Z,6.10
2017-09-04T06:10:46.860Z,5.82
2017-09-04T06:13:14.505Z,11.30
2017-09-04T06:15:42.167Z,6.80
2017-09-04T06:18:09.802Z,9.35
2017-09-04T06:20:37.445Z,8.15
2017-09-04T06:23:05.122Z,9.52
2017-09-04T06:25:32.749Z,8.27
2017-09-04T06:28:00.416Z,9.38
2017-09-04T06:30:28.076Z,9.00
2017-09-04T06:32:55.703Z,9.60
2017-09-04T06:35:23.351Z,8.88
2017-09-04T06:37:51.028Z,8.07
2017-09-04T06:40:18.665Z,8.52
2017-09-04T06:42:46.309Z,7.85
2017-09-04T06:45:13.967Z,7.82
2017-09-04T06:47:41.608Z,6.93
2017-09-04T06:50:09.231Z,7.15
2017-09-04T06:52:36.885Z,7.00
2017-09-04T06:55:04.489Z,6.43
2017-09-04T06:57:32.099Z,6.80
2017-09-04T06:59:59.745Z,6.23
2017-09-04T07:02:27.363Z,5.47
2017-09-04T07:04:54.990Z,7.63
2017-09-04T07:07:22.662Z,6.47
2017-09-04T07:09:50.269Z,5.27
2017-09-04T07:12:17.872Z,5.50
2017-09-04T07:14:45.512Z,4.97
2017-09-04T07:17:13.120Z,5.43
2017-09-04T07:19:40.741Z,6.57
2017-09-04T07:22:08.377Z,6.30
2017-09-04T07:24:36.069Z,6.60
2017-09-04T07:27:03.688Z,5.60
2017-09-04T07:29:31.350Z,4.93
2017-09-04T07:31:58.960Z,5.87
2017-09-04T07:34:26.589Z,5.20
2017-09-04T07:36:54.343Z,5.00
2017-09-04T07:39:21.952Z,6.93
2017-09-04T07:41:49.559Z,5.10
2017-09-04T07:44:17.202Z,5.60
2017-09-04T07:46:44.800Z,6.47
2017-09-04T07:49:12.403Z,5.97
2017-09-04T07:51:40.050Z,6.80
2017-09-04T07:54:07.669Z,7.17
2017-09-04T07:56:35.296Z,6.17
2017-09-04T07:59:02.924Z,5.70
2017-09-04T08:01:30.541Z,5.10
2017-09-04T08:03:58.164Z,6.37
2017-09-04T08:06:25.811Z,5.37
2017-09-04T08:08:53.427Z,4.93
2017-09-04T08:11:21.060Z,4.50
2017-09-04T08:13:48.704Z,5.30
2017-09-04T08:16:16.307Z,5.20
2017-09-04T08:18:43.907Z,4.37
2017-09-04T08:21:11.556Z,5.83
2017-09-04T08:23:39.168Z,4.57
2017-09-04T08:26:06.792Z,6.73
2017-09-04T08:28:34.441Z,4.33
2017-09-04T08:31:02.053Z,4.80
2017-09-04T08:33:29.652Z,4.77
2017-09-04T08:35:57.304Z,4.67
2017-09-04T08:38:24.908Z,5.47
2017-09-04T08:40:52.518Z,3.57
2017-09-04T08:43:20.164Z,4.20
2017-09-04T08:45:47.769Z,4.50
2017-09-04T08:48:15.389Z,4.50
2017-09-04T08:50:43.026Z,5.03
2017-09-04T08:53:10.631Z,4.23
2017-09-04T08:55:38.246Z,4.90
2017-09-04T08:58:05.896Z,3.30
2017-09-04T09:00:33.517Z,3.73
2017-09-04T09:03:01.127Z,4.27
2017-09-04T09:05:28.760Z,3.63
2017-09-04T09:07:56.394Z,3.00
2017-09-04T09:10:24.018Z,4.00
2017-09-04T09:12:51.666Z,3.10
2017-09-04T09:15:19.289Z,3.73
2017-09-04T09:17:46.894Z,2.90
2017-09-04T09:20:14.537Z,2.30
2017-09-04T09:22:42.146Z,2.87
2017-09-04T09:25:09.752Z,3.33
2017-09-04T09:27:37.396Z,2.77
2017-09-04T09:30:05.002Z,2.67
2017-09-04T09:32:32.635Z,4.43
2017-09-04T09:35:00.268Z,2.93
2017-09-04T09:37:27.877Z,2.40
2017-09-04T09:39:55.485Z,2.50
2017-09-04T09:42:23.154Z,2.90
2017-09-04T09:44:50.760Z,2.00
2017-09-04T09:47:18.374Z,2.50
2017-09-04T09:49:46.026Z,2.50
2017-09-04T09:52:13.645Z,2.47
2017-09-04T09:54:41.253Z,2.57
2017-09-04T09:57:08.893Z,2.80
2017-09-04T09:59:36.535Z,2.50
2017-09-04T10:02:04.182Z,2.30
2017-09-04T10:04:31.815Z,2.50
2017-09-04T10:06:59.424Z,2.20
2017-09-04T10:09:27.037Z,2.03
2017-09-04T10:11:54.682Z,3.20
2017-09-04T10:14:22.289Z,2.57
2017-09-04T10:16:49.907Z,2.20
2017-09-04T10:19:17.551Z,2.17
2017-09-04T10:21:45.173Z,2.83
2017-09-04T10:24:12.793Z,2.47
2017-09-04T10:26:40.432Z,1.93
2017-09-04T10:29:08.059Z,3.23
2017-09-04T10:31:35.685Z,3.13
2017-09-04T10:34:03.377Z,1.73
2017-09-04T10:36:30.993Z,2.60
2017-09-04T10:38:58.613Z,2.83
2017-09-04T10:41:26.262Z,2.10
2017-09-04T10:43:53.891Z,2.30
2017-09-04T10:46:21.513Z,3.00
2017-09-04T10:48:49.163Z,3.00
2017-09-04T10:51:16.767Z,2.07
2017-09-04T10:53:44.368Z,2.83
2017-09-04T10:56:12.019Z,2.20
2017-09-04T10:58:39.643Z,2.40
2017-09-04T11:01:07.250Z,2.77
2017-09-04T11:03:34.903Z,2.50
2017-09-04T11:06:02.534Z,2.30
2017-09-04T11:08:30.149Z,2.43
2017-09-04T11:10:57.782Z,3.10
2017-09-04T11:13:25.400Z,2.73
2017-09-04T11:15:53.013Z,3.30
2017-09-04T11:18:20.669Z,2.70
2017-09-04T11:20:48.287Z,1.90
2017-09-04T11:23:15.910Z,2.53
2017-09-04T11:25:43.557Z,2.57
2017-09-04T11:28:11.188Z,3.20
2017-09-04T11:30:38.802Z,2.80
2017-09-04T11:33:06.455Z,2.53
2017-09-04T11:35:34.067Z,3.23
2017-09-04T11:38:01.723Z,2.60
2017-09-04T11:40:29.370Z,2.37
2017-09-04T11:42:56.977Z,2.53
2017-09-04T11:45:24.583Z,2.53
2017-09-04T11:47:52.232Z,2.50
2017-09-04T11:50:19.841Z,2.53
2017-09-04T11:52:47.439Z,2.90
2017-09-04T11:55:15.436Z,4.00
2017-09-04T11:57:43.060Z,2.00
2017-09-04T12:00:10.691Z,2.40
2017-09-04T12:02:38.369Z,2.60
2017-09-04T12:05:06.000Z,2.07
2017-09-04T12:07:33.608Z,3.43
2017-09-04T12:10:01.293Z,1.90
2017-09-04T12:12:28.912Z,1.60
2017-09-04T12:14:56.552Z,2.57
2017-09-04T12:17:24.196Z,2.87
2017-09-04T12:19:51.814Z,1.90
2017-09-04T12:22:19.415Z,2.60
2017-09-04T12:24:47.059Z,2.17
2017-09-04T12:27:14.671Z,2.00
2017-09-04T12:29:42.292Z,2.60
2017-09-04T12:32:09.941Z,1.97
2017-09-04T12:34:37.558Z,2.60
2017-09-04T12:37:05.218Z,2.07
2017-09-04T12:39:32.860Z,1.50
2017-09-04T12:42:00.475Z,1.90
2017-09-04T12:44:29.283Z,1.87
2017-09-04T12:46:56.934Z,1.73
2017-09-04T12:49:24.551Z,3.00
2017-09-04T12:51:52.161Z,3.00
2017-09-04T12:54:19.925Z,2.50
2017-09-04T12:56:47.586Z,2.60
2017-09-04T12:59:15.225Z,2.03
2017-09-04T13:01:42.883Z,3.03
2017-09-04T13:04:10.488Z,2.03
2017-09-04T13:06:38.096Z,3.07
2017-09-04T13:09:05.773Z,2.67
2017-09-04T13:11:39.084Z,2.33
2017-09-04T13:17:27.868Z,2.03
2017-09-04T13:20:01.155Z,1.80
2017-09-04T13:22:34.531Z,3.93
2017-09-04T13:25:07.764Z,1.97
2017-09-04T13:27:41.009Z,2.53
2017-09-04T13:30:14.381Z,2.07
2017-09-04T13:32:52.512Z,2.60
2017-09-04T13:35:25.742Z,4.30
2017-09-04T13:37:58.267Z,2.30
2017-09-04T13:40:31.664Z,2.50
2017-09-04T13:46:02.879Z,1.50
2017-09-04T13:48:36.268Z,2.60
2017-09-04T13:51:09.542Z,1.60
2017-09-04T13:53:42.812Z,1.87
2017-09-04T13:59:17.365Z,2.73
2017-09-04T14:04:48.623Z,3.33
2017-09-04T14:07:18.742Z,2.70
2017-09-04T14:09:46.948Z,2.10
2017-09-04T14:15:31.572Z,2.73
2017-09-04T14:18:11.731Z,2.50
2017-09-04T14:20:39.340Z,2.67
2017-09-04T14:23:06.945Z,2.30
2017-09-04T14:25:34.606Z,2.37
2017-09-04T14:28:02.234Z,2.50
2017-09-04T14:30:29.850Z,2.20
2017-09-04T14:32:57.491Z,2.13
2017-09-04T14:35:25.107Z,2.30
2017-09-04T14:37:52.737Z,2.70
2017-09-04T14:40:22.848Z,3.23
2017-09-04T14:42:50.911Z,3.07
2017-09-04T14:45:25.114Z,3.70
2017-09-04T14:47:57.262Z,2.70
2017-09-04T14:50:24.899Z,3.23
2017-09-04T14:52:52.538Z,2.93
2017-09-04T14:55:20.164Z,4.40
2017-09-04T14:57:47.827Z,2.60
2017-09-04T15:00:15.458Z,2.10
2017-09-04T15:02:43.080Z,4.80
2017-09-04T15:05:10.728Z,2.53
2017-09-04T15:07:38.340Z,2.80
2017-09-04T15:10:05.964Z,2.63
2017-09-04T15:12:33.621Z,2.40
2017-09-04T15:15:01.246Z,3.80
2017-09-04T15:17:28.864Z,3.40
2017-09-04T15:19:56.549Z,2.90
2017-09-04T15:25:27.214Z,2.87
2017-09-04T15:27:54.819Z,4.07
2017-09-04T15:30:22.441Z,2.80
2017-09-04T15:32:50.040Z,3.80
2017-09-04T15:35:17.680Z,2.80
2017-09-04T15:37:45.285Z,3.30
2017-09-04T15:40:12.884Z,2.70
2017-09-04T15:42:41.507Z,2.30
2017-09-04T15:45:09.218Z,2.60
2017-09-04T15:47:36.856Z,2.63
2017-09-04T15:50:04.459Z,3.07
2017-09-04T15:52:32.069Z,2.40
2017-09-04T15:54:59.701Z,3.00
2017-09-04T15:57:27.388Z,2.07
2017-09-04T15:59:55.056Z,2.23
2017-09-04T16:02:22.677Z,3.10
2017-09-04T16:04:50.297Z,2.17
2017-09-04T16:07:28.758Z,2.80
2017-09-04T16:09:56.372Z,2.53
2017-09-04T16:15:33.210Z,2.60
2017-09-04T16:21:10.027Z,2.40
2017-09-04T16:23:41.316Z,4.00
2017-09-04T16:26:10.436Z,2.70
2017-09-04T16:28:38.834Z,2.07
2017-09-04T16:31:12.064Z,2.13
2017-09-04T16:36:44.714Z,3.20
2017-09-04T16:39:18.116Z,2.00
2017-09-04T16:44:43.962Z,1.93
2017-09-04T16:47:17.177Z,2.03
2017-09-04T16:53:08.647Z,5.27
2017-09-04T16:55:57.156Z,2.70
2017-09-04T16:58:24.757Z,2.47
2017-09-04T17:00:52.372Z,1.50
2017-09-04T17:03:20.003Z,2.70
2017-09-04T17:05:47.630Z,1.90
2017-09-04T17:08:17.078Z,3.73
2017-09-04T17:10:45.492Z,2.00
2017-09-04T17:13:13.110Z,2.90
2017-09-04T17:15:44.356Z,2.33
2017-09-04T17:18:25.701Z,2.10
2017-09-04T17:21:03.248Z,2.20
2017-09-04T17:23:31.801Z,2.00
2017-09-04T17:25:59.413Z,2.33
2017-09-04T17:28:27.048Z,2.43
2017-09-04T17:30:54.665Z,2.53
2017-09-04T17:33:22.319Z,3.27
2017-09-04T17:35:49.954Z,3.35
2017-09-04T17:38:17.564Z,3.63
2017-09-04T17:40:45.215Z,3.53
2017-09-04T17:43:12.849Z,3.65
2017-09-04T17:45:40.486Z,3.30
2017-09-04T17:48:08.131Z,3.65
2017-09-04T17:50:37.013Z,3.90
2017-09-04T17:53:15.388Z,3.55
2017-09-04T17:55:52.191Z,3.70
2017-09-04T17:58:31.105Z,3.75
2017-09-04T18:01:13.612Z,3.72
2017-09-04T18:03:49.547Z,4.07
2017-09-04T18:06:19.815Z,3.50
2017-09-04T18:08:48.860Z,3.22
2017-09-04T18:11:16.503Z,2.83
2017-09-04T18:13:44.134Z,3.10
2017-09-04T18:16:11.788Z,2.92
2017-09-04T18:18:39.425Z,3.97
2017-09-04T18:21:07.109Z,3.22
2017-09-04T18:23:34.749Z,2.92
2017-09-04T18:26:04.743Z,3.35
2017-09-04T18:28:32.466Z,3.50
2017-09-04T18:31:00.139Z,4.57
2017-09-04T18:33:27.862Z,3.45
2017-09-04T18:35:55.509Z,3.25
2017-09-04T18:38:23.141Z,3.17
2017-09-04T18:40:50.779Z,2.90
2017-09-04T18:43:18.412Z,2.90
2017-09-04T18:45:46.067Z,3.87
2017-09-04T18:48:13.695Z,3.20
2017-09-04T18:50:41.333Z,4.47
2017-09-04T18:53:08.981Z,5.60
2017-09-04T18:55:36.615Z,4.30
2017-09-04T18:58:04.281Z,3.75
2017-09-04T19:00:31.995Z,4.90
2017-09-04T19:02:59.697Z,4.00
2017-09-04T19:05:27.368Z,4.10
2017-09-04T19:07:55.008Z,4.20
2017-09-04T19:10:22.677Z,3.20
2017-09-04T19:12:50.309Z,4.68
2017-09-04T19:15:17.945Z,3.83
2017-09-04T19:17:45.595Z,4.50
2017-09-04T19:20:13.218Z,5.10
2017-09-04T19:22:40.885Z,5.00
2017-09-04T19:25:08.523Z,5.60
2017-09-04T19:27:36.156Z,4.30
2017-09-04T19:30:03.827Z,4.82
2017-09-04T19:32:31.467Z,4.68
2017-09-04T19:34:59.141Z,5.28
2017-09-04T19:37:26.766Z,4.12
2017-09-04T19:39:54.401Z,3.95
2017-09-04T19:42:22.064Z,4.55
2017-09-04T19:44:49.703Z,4.30
2017-09-04T19:47:17.364Z,4.68
2017-09-04T19:49:45.034Z,5.30
2017-09-04T19:52:12.663Z,4.70
2017-09-04T19:54:40.604Z,4.55
2017-09-04T19:57:08.232Z,4.60
2017-09-04T19:59:35.899Z,4.20
2017-09-04T20:02:03.547Z,3.75
2017-09-04T20:04:31.192Z,4.10
2017-09-04T20:06:59.780Z,3.62
2017-09-04T20:09:27.457Z,4.07
2017-09-04T20:11:55.145Z,4.57
2017-09-04T20:14:22.768Z,5.03
2017-09-04T20:16:50.398Z,4.78
2017-09-04T20:19:18.049Z,4.28
2017-09-04T20:21:45.667Z,4.50
2017-09-04T20:24:13.327Z,5.53
2017-09-04T20:26:40.968Z,5.03
2017-09-04T20:29:08.591Z,6.15
2017-09-04T20:31:36.245Z,6.28
2017-09-04T20:34:04.128Z,5.07
2017-09-04T20:36:31.902Z,4.55
2017-09-04T20:38:59.556Z,5.53
2017-09-04T20:41:27.183Z,4.93
2017-09-04T20:43:54.827Z,6.22
2017-09-04T20:46:22.462Z,4.15
2017-09-04T20:48:50.143Z,5.57
2017-09-04T20:51:17.795Z,4.50
2017-09-04T20:53:45.507Z,5.28
2017-09-04T20:56:13.284Z,4.95
2017-09-04T20:58:41.002Z,4.20
2017-09-04T21:01:08.797Z,4.72
2017-09-04T21:03:36.447Z,4.40
2017-09-04T21:06:04.085Z,5.22
2017-09-04T21:08:31.741Z,4.90
2017-09-04T21:10:59.367Z,4.90
2017-09-04T21:13:27.028Z,5.22
2017-09-04T21:15:54.785Z,4.62
2017-09-04T21:18:22.427Z,6.40
2017-09-04T21:20:50.082Z,5.30
2017-09-04T21:23:17.707Z,5.45
2017-09-04T21:25:45.375Z,5.87
2017-09-04T21:28:13.036Z,7.62
2017-09-04T21:30:40.673Z,5.12
2017-09-04T21:33:08.315Z,7.18
2017-09-04T21:35:35.953Z,5.85
2017-09-04T21:38:03.620Z,5.40
2017-09-04T21:40:31.244Z,6.55
2017-09-04T21:42:58.879Z,6.07
2017-09-04T21:45:26.533Z,5.05
2017-09-04T21:47:54.155Z,5.62
2017-09-04T21:50:21.816Z,5.62
2017-09-04T21:52:49.444Z,5.70
2017-09-04T21:55:17.068Z,6.00
2017-09-04T21:57:44.715Z,5.30
2017-09-04T22:00:12.342Z,5.28
2017-09-04T22:02:40.003Z,6.03
2017-09-04T22:05:07.633Z,5.75
2017-09-04T22:07:35.263Z,6.53
2017-09-04T22:10:02.921Z,6.00
2017-09-04T22:12:30.608Z,5.90
2017-09-04T22:14:58.285Z,6.43
2017-09-04T22:17:25.907Z,6.03
2017-09-04T22:19:53.532Z,5.60
2017-09-04T22:22:21.199Z,7.25
2017-09-04T22:24:48.836Z,7.70
2017-09-04T22:27:16.493Z,7.22
2017-09-04T22:29:44.129Z,5.78
2017-09-04T22:32:11.747Z,7.45
2017-09-04T22:34:39.401Z,5.97
2017-09-04T22:37:07.028Z,6.72
2017-09-04T22:39:34.709Z,6.10
2017-09-04T22:42:02.335Z,5.70
2017-09-04T22:44:29.968Z,6.93
2017-09-04T22:46:57.619Z,6.70
2017-09-04T22:49:25.249Z,6.75
2017-09-04T22:51:52.907Z,7.28
2017-09-04T22:54:20.532Z,5.80
2017-09-04T22:56:48.169Z,6.70
2017-09-04T22:59:16.279Z,7.30
2017-09-04T23:01:43.907Z,8.23
2017-09-04T23:04:12.137Z,7.18
2017-09-04T23:06:39.768Z,6.45
2017-09-04T23:09:07.400Z,7.53
2017-09-04T23:11:35.062Z,7.00
2017-09-04T23:14:02.696Z,8.15
2017-09-04T23:16:30.363Z,7.72
2017-09-04T23:18:58.001Z,8.68
2017-09-04T23:21:25.641Z,6.72
2017-09-04T23:23:53.299Z,6.57
2017-09-04T23:26:20.927Z,7.45
2017-09-04T23:28:48.598Z,7.15
2017-09-04T23:31:16.228Z,7.55
2017-09-04T23:33:43.861Z,7.72
2017-09-04T23:36:11.506Z,7.40
2017-09-04T23:38:39.134Z,6.60
2017-09-04T23:41:06.791Z,6.35
2017-09-04T23:43:34.423Z,7.32
2017-09-04T23:46:02.062Z,7.72
2017-09-04T23:48:29.717Z,7.20
2017-09-04T23:50:57.349Z,8.23
2017-09-04T23:53:25.020Z,8.77
2017-09-04T23:55:52.657Z,7.10
2017-09-04T23:58:20.285Z,8.85
